Terminal Aerodrome Forecast
Issued by NWS Sterling, VA

Home | Current Version | Previous Version | Text Only | Print | Product List | Glossary On
Versions: 1 2 3 4 5 6 7 8 9 10 11 12 13 14 15 16 17
000
FTUS41 KLWX 211700 RRA
TAFCHO
TAF
KCHO 211746Z 2118/2218 22005KT P6SM FEW050
     FM212000 25005KT P6SM BKN050
     FM212300 31005KT P6SM OVC050
     FM220600 32006KT 5SM -SHRA OVC030
     FM221500 34013KT P6SM BKN050=

USA.gov is the U.S. government's official web portal to all federal, state and local government web resources and services.